sensor_id;sensor_type;location;lat;lon;timestamp;P1;durP1;ratioP1;P2;durP2;ratioP2
63370;SDS011;49504;48.336;14.472;2023-04-06T00:00:43;4.50;;;2.22;;
63370;SDS011;49504;48.336;14.472;2023-04-06T00:04:04;4.85;;;2.40;;
63370;SDS011;49504;48.336;14.472;2023-04-06T00:07:27;3.85;;;1.90;;
63370;SDS011;49504;48.336;14.472;2023-04-06T00:10:48;4.45;;;1.80;;
63370;SDS011;49504;48.336;14.472;2023-04-06T00:14:09;4.70;;;2.22;;
63370;SDS011;49504;48.336;14.472;2023-04-06T00:17:30;4.10;;;2.00;;
63370;SDS011;49504;48.336;14.472;2023-04-06T00:20:52;4.43;;;2.00;;
63370;SDS011;49504;48.336;14.472;2023-04-06T00:24:14;6.15;;;2.33;;
63370;SDS011;49504;48.336;14.472;2023-04-06T00:27:35;4.43;;;2.10;;
63370;SDS011;49504;48.336;14.472;2023-04-06T00:30:57;4.63;;;2.10;;
63370;SDS011;49504;48.336;14.472;2023-04-06T00:34:19;4.22;;;2.33;;
63370;SDS011;49504;48.336;14.472;2023-04-06T00:37:40;4.03;;;1.98;;
63370;SDS011;49504;48.336;14.472;2023-04-06T00:41:03;4.18;;;2.03;;
63370;SDS011;49504;48.336;14.472;2023-04-06T00:44:25;4.05;;;2.13;;
63370;SDS011;49504;48.336;14.472;2023-04-06T00:47:47;4.15;;;1.88;;
63370;SDS011;49504;48.336;14.472;2023-04-06T00:53:01;3.85;;;2.05;;
63370;SDS011;49504;48.336;14.472;2023-04-06T00:56:22;3.83;;;1.92;;
63370;SDS011;49504;48.336;14.472;2023-04-06T00:59:46;4.65;;;2.20;;
63370;SDS011;49504;48.336;14.472;2023-04-06T01:03:08;3.60;;;1.80;;
63370;SDS011;49504;48.336;14.472;2023-04-06T01:06:34;4.00;;;2.00;;
63370;SDS011;49504;48.336;14.472;2023-04-06T01:09:57;4.15;;;1.80;;
63370;SDS011;49504;48.336;14.472;2023-04-06T01:16:52;4.35;;;2.20;;
63370;SDS011;49504;48.336;14.472;2023-04-06T01:20:18;3.75;;;1.95;;
63370;SDS011;49504;48.336;14.472;2023-04-06T01:23:41;3.55;;;1.85;;
63370;SDS011;49504;48.336;14.472;2023-04-06T01:27:04;3.78;;;1.95;;
63370;SDS011;49504;48.336;14.472;2023-04-06T01:30:51;5.15;;;1.80;;
63370;SDS011;49504;48.336;14.472;2023-04-06T01:34:32;3.70;;;1.70;;
63370;SDS011;49504;48.336;14.472;2023-04-06T01:37:57;4.13;;;1.85;;
63370;SDS011;49504;48.336;14.472;2023-04-06T01:41:25;4.10;;;2.05;;
63370;SDS011;49504;48.336;14.472;2023-04-06T01:44:47;4.95;;;1.90;;
63370;SDS011;49504;48.336;14.472;2023-04-06T01:48:10;3.90;;;1.90;;
63370;SDS011;49504;48.336;14.472;2023-04-06T01:51:31;4.32;;;1.92;;
63370;SDS011;49504;48.336;14.472;2023-04-06T01:54:55;4.25;;;1.92;;
63370;SDS011;49504;48.336;14.472;2023-04-06T01:58:36;4.00;;;1.77;;
63370;SDS011;49504;48.336;14.472;2023-04-06T02:01:58;3.92;;;1.80;;
63370;SDS011;49504;48.336;14.472;2023-04-06T02:05:21;4.15;;;2.38;;
63370;SDS011;49504;48.336;14.472;2023-04-06T02:08:43;3.78;;;1.85;;
63370;SDS011;49504;48.336;14.472;2023-04-06T02:12:05;3.92;;;1.70;;
63370;SDS011;49504;48.336;14.472;2023-04-06T02:15:29;3.88;;;1.75;;
63370;SDS011;49504;48.336;14.472;2023-04-06T02:18:52;3.50;;;1.55;;
63370;SDS011;49504;48.336;14.472;2023-04-06T02:22:13;4.40;;;1.88;;
63370;SDS011;49504;48.336;14.472;2023-04-06T02:25:34;3.97;;;1.70;;
63370;SDS011;49504;48.336;14.472;2023-04-06T02:28:56;3.63;;;2.00;;
63370;SDS011;49504;48.336;14.472;2023-04-06T02:32:18;4.57;;;1.90;;
63370;SDS011;49504;48.336;14.472;2023-04-06T02:35:40;3.20;;;1.40;;
63370;SDS011;49504;48.336;14.472;2023-04-06T02:39:04;3.72;;;1.67;;
63370;SDS011;49504;48.336;14.472;2023-04-06T02:42:25;3.60;;;1.60;;
63370;SDS011;49504;48.336;14.472;2023-04-06T02:45:47;3.40;;;1.45;;
63370;SDS011;49504;48.336;14.472;2023-04-06T02:49:10;4.13;;;2.00;;
63370;SDS011;49504;48.336;14.472;2023-04-06T02:52:32;4.18;;;1.65;;
63370;SDS011;49504;48.336;14.472;2023-04-06T02:55:54;3.17;;;1.52;;
63370;SDS011;49504;48.336;14.472;2023-04-06T02:59:17;3.38;;;1.70;;
63370;SDS011;49504;48.336;14.472;2023-04-06T03:02:49;3.47;;;1.60;;
63370;SDS011;49504;48.336;14.472;2023-04-06T03:06:14;3.25;;;1.63;;
63370;SDS011;49504;48.336;14.472;2023-04-06T03:09:36;3.17;;;1.60;;
63370;SDS011;49504;48.336;14.472;2023-04-06T03:12:58;3.40;;;1.60;;
63370;SDS011;49504;48.336;14.472;2023-04-06T03:16:34;3.35;;;1.60;;
63370;SDS011;49504;48.336;14.472;2023-04-06T03:19:56;3.67;;;1.60;;
63370;SDS011;49504;48.336;14.472;2023-04-06T03:23:19;3.40;;;1.60;;
63370;SDS011;49504;48.336;14.472;2023-04-06T03:26:40;3.33;;;1.58;;
63370;SDS011;49504;48.336;14.472;2023-04-06T03:30:02;3.17;;;1.48;;
63370;SDS011;49504;48.336;14.472;2023-04-06T03:33:28;3.45;;;1.60;;
63370;SDS011;49504;48.336;14.472;2023-04-06T03:36:51;3.60;;;1.52;;
63370;SDS011;49504;48.336;14.472;2023-04-06T03:40:13;3.20;;;1.45;;
63370;SDS011;49504;48.336;14.472;2023-04-06T03:43:35;2.40;;;1.08;;
63370;SDS011;49504;48.336;14.472;2023-04-06T03:46:56;3.00;;;1.27;;
63370;SDS011;49504;48.336;14.472;2023-04-06T03:50:18;4.30;;;1.83;;
63370;SDS011;49504;48.336;14.472;2023-04-06T03:53:39;3.70;;;1.60;;
63370;SDS011;49504;48.336;14.472;2023-04-06T03:57:03;3.38;;;1.60;;
63370;SDS011;49504;48.336;14.472;2023-04-06T04:00:25;3.55;;;1.60;;
63370;SDS011;49504;48.336;14.472;2023-04-06T04:03:49;3.50;;;1.45;;
63370;SDS011;49504;48.336;14.472;2023-04-06T04:07:10;3.45;;;1.45;;
63370;SDS011;49504;48.336;14.472;2023-04-06T04:10:31;3.40;;;1.60;;
63370;SDS011;49504;48.336;14.472;2023-04-06T04:13:54;3.65;;;1.55;;
63370;SDS011;49504;48.336;14.472;2023-04-06T04:17:16;3.70;;;1.50;;
63370;SDS011;49504;48.336;14.472;2023-04-06T04:20:37;3.47;;;1.52;;
63370;SDS011;49504;48.336;14.472;2023-04-06T04:23:59;3.67;;;1.30;;
63370;SDS011;49504;48.336;14.472;2023-04-06T04:27:20;3.13;;;1.23;;
63370;SDS011;49504;48.336;14.472;2023-04-06T04:30:45;4.35;;;1.52;;
63370;SDS011;49504;48.336;14.472;2023-04-06T04:34:08;3.70;;;1.60;;
63370;SDS011;49504;48.336;14.472;2023-04-06T04:37:30;4.03;;;1.67;;
63370;SDS011;49504;48.336;14.472;2023-04-06T04:40:52;3.47;;;1.60;;
63370;SDS011;49504;48.336;14.472;2023-04-06T04:44:13;3.28;;;1.45;;
63370;SDS011;49504;48.336;14.472;2023-04-06T04:47:37;3.90;;;1.58;;
63370;SDS011;49504;48.336;14.472;2023-04-06T04:51:01;3.70;;;1.77;;
63370;SDS011;49504;48.336;14.472;2023-04-06T04:54:33;3.50;;;1.60;;
63370;SDS011;49504;48.336;14.472;2023-04-06T04:57:54;3.83;;;1.75;;
63370;SDS011;49504;48.336;14.472;2023-04-06T05:01:23;3.30;;;1.60;;
63370;SDS011;49504;48.336;14.472;2023-04-06T05:04:47;3.63;;;1.48;;
63370;SDS011;49504;48.336;14.472;2023-04-06T05:08:14;3.83;;;1.52;;
63370;SDS011;49504;48.336;14.472;2023-04-06T05:11:39;4.97;;;1.80;;
63370;SDS011;49504;48.336;14.472;2023-04-06T05:15:00;4.43;;;1.73;;
63370;SDS011;49504;48.336;14.472;2023-04-06T05:18:22;3.88;;;1.63;;
63370;SDS011;49504;48.336;14.472;2023-04-06T05:21:44;3.60;;;1.77;;
63370;SDS011;49504;48.336;14.472;2023-04-06T05:25:06;3.92;;;1.67;;
63370;SDS011;49504;48.336;14.472;2023-04-06T05:28:28;5.80;;;1.70;;
63370;SDS011;49504;48.336;14.472;2023-04-06T05:31:51;3.88;;;1.75;;
63370;SDS011;49504;48.336;14.472;2023-04-06T05:35:13;3.90;;;1.58;;
63370;SDS011;49504;48.336;14.472;2023-04-06T05:38:39;4.13;;;1.55;;
63370;SDS011;49504;48.336;14.472;2023-04-06T05:42:19;3.35;;;1.35;;
63370;SDS011;49504;48.336;14.472;2023-04-06T05:45:49;3.97;;;1.60;;
63370;SDS011;49504;48.336;14.472;2023-04-06T05:49:11;3.65;;;1.50;;
63370;SDS011;49504;48.336;14.472;2023-04-06T05:52:33;4.43;;;1.42;;
63370;SDS011;49504;48.336;14.472;2023-04-06T05:56:00;3.70;;;1.63;;
63370;SDS011;49504;48.336;14.472;2023-04-06T06:02:43;4.10;;;1.70;;
63370;SDS011;49504;48.336;14.472;2023-04-06T06:06:12;8.10;;;2.47;;
63370;SDS011;49504;48.336;14.472;2023-04-06T06:09:48;7.35;;;2.03;;
63370;SDS011;49504;48.336;14.472;2023-04-06T06:13:23;4.65;;;2.08;;
63370;SDS011;49504;48.336;14.472;2023-04-06T06:16:45;5.88;;;2.35;;
63370;SDS011;49504;48.336;14.472;2023-04-06T06:20:09;7.97;;;2.97;;
63370;SDS011;49504;48.336;14.472;2023-04-06T06:23:32;7.15;;;2.80;;
63370;SDS011;49504;48.336;14.472;2023-04-06T06:26:54;9.00;;;2.70;;
63370;SDS011;49504;48.336;14.472;2023-04-06T06:30:22;9.10;;;2.72;;
63370;SDS011;49504;48.336;14.472;2023-04-06T06:33:44;8.45;;;2.67;;
63370;SDS011;49504;48.336;14.472;2023-04-06T06:37:06;9.45;;;3.25;;
63370;SDS011;49504;48.336;14.472;2023-04-06T06:41:16;8.55;;;2.97;;
63370;SDS011;49504;48.336;14.472;2023-04-06T06:44:38;6.63;;;3.08;;
63370;SDS011;49504;48.336;14.472;2023-04-06T06:48:00;7.15;;;2.42;;
63370;SDS011;49504;48.336;14.472;2023-04-06T06:51:21;6.40;;;2.80;;
63370;SDS011;49504;48.336;14.472;2023-04-06T06:54:42;5.95;;;2.53;;
63370;SDS011;49504;48.336;14.472;2023-04-06T06:58:05;8.02;;;2.80;;
63370;SDS011;49504;48.336;14.472;2023-04-06T07:01:26;6.43;;;2.30;;
63370;SDS011;49504;48.336;14.472;2023-04-06T07:04:49;6.03;;;2.50;;
63370;SDS011;49504;48.336;14.472;2023-04-06T07:08:11;7.50;;;2.72;;
63370;SDS011;49504;48.336;14.472;2023-04-06T07:11:32;6.70;;;2.63;;
63370;SDS011;49504;48.336;14.472;2023-04-06T07:14:55;6.30;;;2.60;;
63370;SDS011;49504;48.336;14.472;2023-04-06T07:18:16;7.55;;;2.45;;
63370;SDS011;49504;48.336;14.472;2023-04-06T07:21:39;6.45;;;2.33;;
63370;SDS011;49504;48.336;14.472;2023-04-06T07:25:00;8.70;;;2.58;;
63370;SDS011;49504;48.336;14.472;2023-04-06T07:28:22;7.75;;;2.58;;
63370;SDS011;49504;48.336;14.472;2023-04-06T07:31:44;6.18;;;2.22;;
63370;SDS011;49504;48.336;14.472;2023-04-06T07:35:06;4.78;;;1.88;;
63370;SDS011;49504;48.336;14.472;2023-04-06T07:38:28;5.82;;;2.15;;
63370;SDS011;49504;48.336;14.472;2023-04-06T07:41:50;5.88;;;2.25;;
63370;SDS011;49504;48.336;14.472;2023-04-06T07:45:11;6.43;;;2.45;;
63370;SDS011;49504;48.336;14.472;2023-04-06T07:48:34;6.00;;;2.42;;
63370;SDS011;49504;48.336;14.472;2023-04-06T07:51:56;6.32;;;2.55;;
63370;SDS011;49504;48.336;14.472;2023-04-06T07:55:17;8.30;;;2.42;;
63370;SDS011;49504;48.336;14.472;2023-04-06T07:58:39;5.70;;;2.33;;
63370;SDS011;49504;48.336;14.472;2023-04-06T08:02:00;6.18;;;2.60;;
63370;SDS011;49504;48.336;14.472;2023-04-06T08:05:22;7.35;;;2.30;;
63370;SDS011;49504;48.336;14.472;2023-04-06T08:11:28;6.68;;;2.75;;
63370;SDS011;49504;48.336;14.472;2023-04-06T08:14:49;4.65;;;2.03;;
63370;SDS011;49504;48.336;14.472;2023-04-06T08:18:11;5.35;;;2.33;;
63370;SDS011;49504;48.336;14.472;2023-04-06T08:21:32;4.95;;;2.13;;
63370;SDS011;49504;48.336;14.472;2023-04-06T08:24:54;5.60;;;1.88;;
63370;SDS011;49504;48.336;14.472;2023-04-06T08:28:16;4.75;;;1.98;;
63370;SDS011;49504;48.336;14.472;2023-04-06T08:31:37;6.38;;;2.53;;
63370;SDS011;49504;48.336;14.472;2023-04-06T08:34:59;5.32;;;2.30;;
63370;SDS011;49504;48.336;14.472;2023-04-06T08:38:20;4.88;;;2.38;;
63370;SDS011;49504;48.336;14.472;2023-04-06T08:41:41;4.78;;;2.05;;
63370;SDS011;49504;48.336;14.472;2023-04-06T08:45:05;5.22;;;2.20;;
63370;SDS011;49504;48.336;14.472;2023-04-06T08:48:28;5.10;;;1.98;;
63370;SDS011;49504;48.336;14.472;2023-04-06T08:51:49;4.90;;;2.22;;
63370;SDS011;49504;48.336;14.472;2023-04-06T08:55:11;5.05;;;1.90;;
63370;SDS011;49504;48.336;14.472;2023-04-06T09:00:35;5.60;;;2.17;;
63370;SDS011;49504;48.336;14.472;2023-04-06T09:03:58;6.35;;;2.13;;
63370;SDS011;49504;48.336;14.472;2023-04-06T09:07:20;4.82;;;1.98;;
63370;SDS011;49504;48.336;14.472;2023-04-06T09:10:42;4.90;;;2.35;;
63370;SDS011;49504;48.336;14.472;2023-04-06T09:14:03;5.28;;;1.98;;
63370;SDS011;49504;48.336;14.472;2023-04-06T09:17:27;5.22;;;2.40;;
63370;SDS011;49504;48.336;14.472;2023-04-06T09:20:56;4.63;;;2.05;;
63370;SDS011;49504;48.336;14.472;2023-04-06T09:24:19;4.50;;;1.95;;
63370;SDS011;49504;48.336;14.472;2023-04-06T09:27:40;5.97;;;2.40;;
63370;SDS011;49504;48.336;14.472;2023-04-06T09:31:01;4.53;;;2.03;;
63370;SDS011;49504;48.336;14.472;2023-04-06T09:34:24;3.67;;;2.15;;
63370;SDS011;49504;48.336;14.472;2023-04-06T09:37:45;4.72;;;2.28;;
63370;SDS011;49504;48.336;14.472;2023-04-06T09:41:08;4.40;;;2.25;;
63370;SDS011;49504;48.336;14.472;2023-04-06T09:44:29;4.93;;;2.00;;
63370;SDS011;49504;48.336;14.472;2023-04-06T09:50:56;3.90;;;1.88;;
63370;SDS011;49504;48.336;14.472;2023-04-06T09:54:22;4.30;;;2.15;;
63370;SDS011;49504;48.336;14.472;2023-04-06T09:57:49;5.20;;;2.00;;
63370;SDS011;49504;48.336;14.472;2023-04-06T10:01:18;4.80;;;1.75;;
63370;SDS011;49504;48.336;14.472;2023-04-06T10:04:42;4.82;;;2.03;;
63370;SDS011;49504;48.336;14.472;2023-04-06T10:08:10;5.25;;;2.22;;
63370;SDS011;49504;48.336;14.472;2023-04-06T10:11:32;5.57;;;2.22;;
63370;SDS011;49504;48.336;14.472;2023-04-06T10:14:54;4.95;;;2.08;;
63370;SDS011;49504;48.336;14.472;2023-04-06T10:18:16;5.38;;;2.28;;
63370;SDS011;49504;48.336;14.472;2023-04-06T10:21:38;4.00;;;2.05;;
63370;SDS011;49504;48.336;14.472;2023-04-06T10:25:02;3.90;;;1.98;;
63370;SDS011;49504;48.336;14.472;2023-04-06T10:28:24;4.45;;;1.75;;
63370;SDS011;49504;48.336;14.472;2023-04-06T10:31:48;4.53;;;2.15;;
63370;SDS011;49504;48.336;14.472;2023-04-06T10:35:10;4.22;;;2.28;;
63370;SDS011;49504;48.336;14.472;2023-04-06T10:38:37;3.95;;;2.00;;
63370;SDS011;49504;48.336;14.472;2023-04-06T10:42:07;4.22;;;2.00;;
63370;SDS011;49504;48.336;14.472;2023-04-06T10:45:30;4.43;;;2.20;;
63370;SDS011;49504;48.336;14.472;2023-04-06T10:48:52;5.25;;;2.28;;
63370;SDS011;49504;48.336;14.472;2023-04-06T10:52:14;5.18;;;2.40;;
63370;SDS011;49504;48.336;14.472;2023-04-06T10:55:35;5.07;;;2.45;;
63370;SDS011;49504;48.336;14.472;2023-04-06T10:59:01;4.75;;;2.50;;
63370;SDS011;49504;48.336;14.472;2023-04-06T11:02:23;4.30;;;2.50;;
63370;SDS011;49504;48.336;14.472;2023-04-06T11:05:45;5.15;;;2.80;;
63370;SDS011;49504;48.336;14.472;2023-04-06T11:09:08;4.22;;;2.50;;
63370;SDS011;49504;48.336;14.472;2023-04-06T11:12:29;4.70;;;2.53;;
63370;SDS011;49504;48.336;14.472;2023-04-06T11:16:29;4.82;;;2.20;;
63370;SDS011;49504;48.336;14.472;2023-04-06T11:19:51;4.73;;;2.60;;
63370;SDS011;49504;48.336;14.472;2023-04-06T11:23:17;4.95;;;2.22;;
63370;SDS011;49504;48.336;14.472;2023-04-06T11:26:43;4.68;;;1.92;;
63370;SDS011;49504;48.336;14.472;2023-04-06T11:30:07;5.47;;;2.58;;
63370;SDS011;49504;48.336;14.472;2023-04-06T11:33:36;5.32;;;2.55;;
63370;SDS011;49504;48.336;14.472;2023-04-06T11:36:58;5.38;;;2.05;;
63370;SDS011;49504;48.336;14.472;2023-04-06T11:40:21;4.43;;;2.00;;
63370;SDS011;49504;48.336;14.472;2023-04-06T11:43:45;4.20;;;2.10;;
63370;SDS011;49504;48.336;14.472;2023-04-06T11:47:08;4.05;;;1.90;;
63370;SDS011;49504;48.336;14.472;2023-04-06T11:50:33;4.85;;;1.95;;
63370;SDS011;49504;48.336;14.472;2023-04-06T11:53:54;5.72;;;2.08;;
63370;SDS011;49504;48.336;14.472;2023-04-06T11:57:16;4.18;;;2.10;;
63370;SDS011;49504;48.336;14.472;2023-04-06T12:00:39;4.15;;;1.73;;
63370;SDS011;49504;48.336;14.472;2023-04-06T12:04:01;4.88;;;1.83;;
63370;SDS011;49504;48.336;14.472;2023-04-06T12:07:23;3.75;;;1.55;;
63370;SDS011;49504;48.336;14.472;2023-04-06T12:10:44;4.15;;;1.83;;
63370;SDS011;49504;48.336;14.472;2023-04-06T12:14:06;3.67;;;1.67;;
63370;SDS011;49504;48.336;14.472;2023-04-06T12:17:27;4.63;;;2.22;;
63370;SDS011;49504;48.336;14.472;2023-04-06T12:20:48;5.25;;;2.15;;
63370;SDS011;49504;48.336;14.472;2023-04-06T12:24:11;5.53;;;2.20;;
63370;SDS011;49504;48.336;14.472;2023-04-06T12:27:32;5.35;;;1.67;;
63370;SDS011;49504;48.336;14.472;2023-04-06T12:30:54;3.72;;;1.85;;
63370;SDS011;49504;48.336;14.472;2023-04-06T12:34:15;3.83;;;1.70;;
63370;SDS011;49504;48.336;14.472;2023-04-06T12:37:37;4.25;;;1.95;;
63370;SDS011;49504;48.336;14.472;2023-04-06T12:40:59;4.15;;;1.70;;
63370;SDS011;49504;48.336;14.472;2023-04-06T12:44:21;4.50;;;1.85;;
63370;SDS011;49504;48.336;14.472;2023-04-06T12:47:42;4.10;;;1.60;;
63370;SDS011;49504;48.336;14.472;2023-04-06T12:51:04;3.58;;;1.60;;
63370;SDS011;49504;48.336;14.472;2023-04-06T12:54:27;4.07;;;1.50;;
63370;SDS011;49504;48.336;14.472;2023-04-06T12:57:49;3.88;;;1.50;;
63370;SDS011;49504;48.336;14.472;2023-04-06T13:01:11;5.95;;;1.73;;
63370;SDS011;49504;48.336;14.472;2023-04-06T13:04:32;3.78;;;1.70;;
63370;SDS011;49504;48.336;14.472;2023-04-06T13:07:56;6.68;;;2.42;;
63370;SDS011;49504;48.336;14.472;2023-04-06T13:11:19;6.47;;;1.92;;
63370;SDS011;49504;48.336;14.472;2023-04-06T13:14:42;4.65;;;1.75;;
63370;SDS011;49504;48.336;14.472;2023-04-06T13:18:03;3.83;;;1.95;;
63370;SDS011;49504;48.336;14.472;2023-04-06T13:21:25;4.20;;;1.75;;
63370;SDS011;49504;48.336;14.472;2023-04-06T13:24:46;4.30;;;1.85;;
63370;SDS011;49504;48.336;14.472;2023-04-06T13:28:07;5.15;;;1.50;;
63370;SDS011;49504;48.336;14.472;2023-04-06T13:31:30;3.55;;;1.83;;
63370;SDS011;49504;48.336;14.472;2023-04-06T13:34:54;4.20;;;2.05;;
63370;SDS011;49504;48.336;14.472;2023-04-06T13:38:15;3.97;;;1.52;;
63370;SDS011;49504;48.336;14.472;2023-04-06T13:41:36;4.03;;;1.90;;
63370;SDS011;49504;48.336;14.472;2023-04-06T13:44:58;5.00;;;1.65;;
63370;SDS011;49504;48.336;14.472;2023-04-06T13:48:21;3.25;;;1.30;;
63370;SDS011;49504;48.336;14.472;2023-04-06T13:51:42;4.22;;;1.52;;
63370;SDS011;49504;48.336;14.472;2023-04-06T13:55:03;3.38;;;1.40;;
63370;SDS011;49504;48.336;14.472;2023-04-06T13:58:25;3.28;;;1.60;;
63370;SDS011;49504;48.336;14.472;2023-04-06T14:01:47;4.30;;;1.60;;
63370;SDS011;49504;48.336;14.472;2023-04-06T14:05:10;4.28;;;1.63;;
63370;SDS011;49504;48.336;14.472;2023-04-06T14:08:31;3.67;;;1.65;;
63370;SDS011;49504;48.336;14.472;2023-04-06T14:11:52;3.67;;;1.60;;
63370;SDS011;49504;48.336;14.472;2023-04-06T14:15:14;3.97;;;1.70;;
63370;SDS011;49504;48.336;14.472;2023-04-06T14:32:25;26.65;;;11.30;;
63370;SDS011;49504;48.336;14.472;2023-04-06T14:35:46;23.25;;;11.77;;
63370;SDS011;49504;48.336;14.472;2023-04-06T14:39:08;20.98;;;10.52;;
63370;SDS011;49504;48.336;14.472;2023-04-06T14:42:45;19.20;;;7.93;;
63370;SDS011;49504;48.336;14.472;2023-04-06T14:46:08;19.10;;;7.65;;
63370;SDS011;49504;48.336;14.472;2023-04-06T14:49:35;24.63;;;11.70;;
63370;SDS011;49504;48.336;14.472;2023-04-06T14:53:03;20.17;;;9.02;;
63370;SDS011;49504;48.336;14.472;2023-04-06T14:56:31;19.67;;;11.07;;
63370;SDS011;49504;48.336;14.472;2023-04-06T14:59:54;20.17;;;10.35;;
63370;SDS011;49504;48.336;14.472;2023-04-06T15:03:19;19.85;;;10.02;;
63370;SDS011;49504;48.336;14.472;2023-04-06T15:06:48;17.45;;;9.52;;
63370;SDS011;49504;48.336;14.472;2023-04-06T15:10:12;15.60;;;7.97;;
63370;SDS011;49504;48.336;14.472;2023-04-06T15:13:36;16.10;;;8.88;;
63370;SDS011;49504;48.336;14.472;2023-04-06T15:20:30;14.18;;;6.60;;
63370;SDS011;49504;48.336;14.472;2023-04-06T15:24:04;15.38;;;6.95;;
63370;SDS011;49504;48.336;14.472;2023-04-06T15:27:30;15.65;;;6.60;;
63370;SDS011;49504;48.336;14.472;2023-04-06T15:30:52;13.40;;;6.28;;
63370;SDS011;49504;48.336;14.472;2023-04-06T15:34:15;12.55;;;5.65;;
63370;SDS011;49504;48.336;14.472;2023-04-06T15:37:36;15.80;;;6.10;;
63370;SDS011;49504;48.336;14.472;2023-04-06T15:41:00;9.90;;;5.65;;
63370;SDS011;49504;48.336;14.472;2023-04-06T15:46:59;9.68;;;5.22;;
63370;SDS011;49504;48.336;14.472;2023-04-06T15:50:22;10.80;;;5.30;;
63370;SDS011;49504;48.336;14.472;2023-04-06T15:53:46;11.10;;;5.18;;
63370;SDS011;49504;48.336;14.472;2023-04-06T15:57:08;10.15;;;5.10;;
63370;SDS011;49504;48.336;14.472;2023-04-06T16:00:31;10.13;;;5.63;;
63370;SDS011;49504;48.336;14.472;2023-04-06T16:03:53;11.60;;;5.07;;
63370;SDS011;49504;48.336;14.472;2023-04-06T16:07:17;10.90;;;4.07;;
63370;SDS011;49504;48.336;14.472;2023-04-06T16:10:39;11.43;;;4.75;;
63370;SDS011;49504;48.336;14.472;2023-04-06T16:14:01;13.40;;;4.63;;
63370;SDS011;49504;48.336;14.472;2023-04-06T16:17:23;9.75;;;4.40;;
63370;SDS011;49504;48.336;14.472;2023-04-06T16:20:46;9.80;;;4.38;;
63370;SDS011;49504;48.336;14.472;2023-04-06T16:24:09;16.02;;;4.47;;
63370;SDS011;49504;48.336;14.472;2023-04-06T16:27:30;10.30;;;3.97;;
63370;SDS011;49504;48.336;14.472;2023-04-06T16:30:51;10.15;;;3.80;;
63370;SDS011;49504;48.336;14.472;2023-04-06T16:34:13;9.27;;;4.35;;
63370;SDS011;49504;48.336;14.472;2023-04-06T16:37:35;9.35;;;4.07;;
63370;SDS011;49504;48.336;14.472;2023-04-06T16:41:00;10.68;;;3.63;;
63370;SDS011;49504;48.336;14.472;2023-04-06T16:44:22;10.20;;;4.13;;
63370;SDS011;49504;48.336;14.472;2023-04-06T16:47:43;9.25;;;3.90;;
63370;SDS011;49504;48.336;14.472;2023-04-06T16:51:04;11.60;;;3.30;;
63370;SDS011;49504;48.336;14.472;2023-04-06T16:54:27;9.10;;;3.83;;
63370;SDS011;49504;48.336;14.472;2023-04-06T16:57:48;9.75;;;3.85;;
63370;SDS011;49504;48.336;14.472;2023-04-06T17:03:41;9.70;;;3.58;;
63370;SDS011;49504;48.336;14.472;2023-04-06T17:08:00;9.27;;;3.65;;
63370;SDS011;49504;48.336;14.472;2023-04-06T17:23:35;12.48;;;3.17;;
63370;SDS011;49504;48.336;14.472;2023-04-06T17:26:57;9.07;;;3.17;;
63370;SDS011;49504;48.336;14.472;2023-04-06T17:30:18;7.90;;;3.00;;
63370;SDS011;49504;48.336;14.472;2023-04-06T17:33:40;10.20;;;3.42;;
63370;SDS011;49504;48.336;14.472;2023-04-06T17:37:01;7.32;;;2.67;;
63370;SDS011;49504;48.336;14.472;2023-04-06T17:40:24;10.07;;;2.88;;
63370;SDS011;49504;48.336;14.472;2023-04-06T17:43:45;8.25;;;3.10;;
63370;SDS011;49504;48.336;14.472;2023-04-06T17:47:06;7.18;;;2.90;;
63370;SDS011;49504;48.336;14.472;2023-04-06T17:50:27;7.32;;;2.53;;
63370;SDS011;49504;48.336;14.472;2023-04-06T17:53:48;9.07;;;3.55;;
63370;SDS011;49504;48.336;14.472;2023-04-06T17:57:11;9.18;;;2.95;;
63370;SDS011;49504;48.336;14.472;2023-04-06T18:00:32;7.05;;;2.70;;
63370;SDS011;49504;48.336;14.472;2023-04-06T18:03:53;8.63;;;2.70;;
63370;SDS011;49504;48.336;14.472;2023-04-06T18:07:14;8.02;;;2.70;;
63370;SDS011;49504;48.336;14.472;2023-04-06T18:10:36;7.72;;;2.63;;
63370;SDS011;49504;48.336;14.472;2023-04-06T18:14:00;7.65;;;2.90;;
63370;SDS011;49504;48.336;14.472;2023-04-06T18:17:26;4.95;;;2.40;;
63370;SDS011;49504;48.336;14.472;2023-04-06T18:20:47;6.85;;;2.83;;
63370;SDS011;49504;48.336;14.472;2023-04-06T18:24:08;5.60;;;2.60;;
63370;SDS011;49504;48.336;14.472;2023-04-06T18:27:29;6.90;;;3.03;;
63370;SDS011;49504;48.336;14.472;2023-04-06T18:30:52;7.07;;;3.10;;
63370;SDS011;49504;48.336;14.472;2023-04-06T18:34:13;6.38;;;2.97;;
63370;SDS011;49504;48.336;14.472;2023-04-06T18:37:34;6.57;;;2.50;;
63370;SDS011;49504;48.336;14.472;2023-04-06T18:40:55;5.97;;;2.78;;
63370;SDS011;49504;48.336;14.472;2023-04-06T18:44:17;6.38;;;2.67;;
63370;SDS011;49504;48.336;14.472;2023-04-06T18:47:39;6.47;;;2.60;;
63370;SDS011;49504;48.336;14.472;2023-04-06T18:51:03;7.32;;;2.63;;
63370;SDS011;49504;48.336;14.472;2023-04-06T18:54:24;6.47;;;2.95;;
63370;SDS011;49504;48.336;14.472;2023-04-06T18:57:46;7.57;;;2.70;;
63370;SDS011;49504;48.336;14.472;2023-04-06T19:01:07;11.15;;;2.33;;
63370;SDS011;49504;48.336;14.472;2023-04-06T19:04:30;6.72;;;2.75;;
63370;SDS011;49504;48.336;14.472;2023-04-06T19:07:51;7.32;;;2.33;;
63370;SDS011;49504;48.336;14.472;2023-04-06T19:11:12;4.53;;;2.40;;
63370;SDS011;49504;48.336;14.472;2023-04-06T19:14:34;6.80;;;2.75;;
63370;SDS011;49504;48.336;14.472;2023-04-06T19:17:55;5.22;;;2.22;;
63370;SDS011;49504;48.336;14.472;2023-04-06T19:21:18;6.13;;;2.13;;
63370;SDS011;49504;48.336;14.472;2023-04-06T19:24:48;6.93;;;2.70;;
63370;SDS011;49504;48.336;14.472;2023-04-06T19:28:09;7.07;;;2.70;;
63370;SDS011;49504;48.336;14.472;2023-04-06T19:31:30;7.78;;;2.35;;
63370;SDS011;49504;48.336;14.472;2023-04-06T19:34:52;4.97;;;2.38;;
63370;SDS011;49504;48.336;14.472;2023-04-06T19:38:14;6.68;;;2.58;;
63370;SDS011;49504;48.336;14.472;2023-04-06T19:41:38;5.80;;;2.63;;
63370;SDS011;49504;48.336;14.472;2023-04-06T19:44:59;4.50;;;2.17;;
63370;SDS011;49504;48.336;14.472;2023-04-06T19:48:20;8.18;;;2.60;;
63370;SDS011;49504;48.336;14.472;2023-04-06T19:51:41;6.57;;;2.92;;
63370;SDS011;49504;48.336;14.472;2023-04-06T19:55:04;5.15;;;2.28;;
63370;SDS011;49504;48.336;14.472;2023-04-06T19:58:26;5.60;;;2.40;;
63370;SDS011;49504;48.336;14.472;2023-04-06T20:01:47;4.70;;;2.17;;
63370;SDS011;49504;48.336;14.472;2023-04-06T20:05:09;6.00;;;2.25;;
63370;SDS011;49504;48.336;14.472;2023-04-06T20:08:30;6.78;;;2.90;;
63370;SDS011;49504;48.336;14.472;2023-04-06T20:11:52;6.93;;;2.75;;
63370;SDS011;49504;48.336;14.472;2023-04-06T20:15:13;6.13;;;2.10;;
63370;SDS011;49504;48.336;14.472;2023-04-06T20:21:04;5.35;;;2.75;;
63370;SDS011;49504;48.336;14.472;2023-04-06T20:24:25;5.07;;;2.20;;
63370;SDS011;49504;48.336;14.472;2023-04-06T20:27:47;5.10;;;2.40;;
63370;SDS011;49504;48.336;14.472;2023-04-06T20:31:08;4.68;;;2.13;;
63370;SDS011;49504;48.336;14.472;2023-04-06T20:34:29;7.38;;;2.65;;
63370;SDS011;49504;48.336;14.472;2023-04-06T20:37:52;4.65;;;2.33;;
63370;SDS011;49504;48.336;14.472;2023-04-06T20:41:13;6.63;;;2.45;;
63370;SDS011;49504;48.336;14.472;2023-04-06T20:47:51;4.70;;;2.13;;
63370;SDS011;49504;48.336;14.472;2023-04-06T20:51:16;6.25;;;2.83;;
63370;SDS011;49504;48.336;14.472;2023-04-06T20:54:38;4.75;;;2.30;;
63370;SDS011;49504;48.336;14.472;2023-04-06T20:59:17;6.13;;;2.60;;
63370;SDS011;49504;48.336;14.472;2023-04-06T21:02:38;5.28;;;2.85;;